Terminal Aerodrome Forecast
Issued by NWS

Home | Current Version | Previous Version | Text Only | Print | Product List | Glossary Off
Versions: 1 2 3 4 5 6 7 8 9 10 11 12 13 14 15 16 17 18 19 20 21 22 23 24

000
FTUS43 KMPX 221700
TAFRWF
TAF
KRWF 221740Z 2218/2318 20008KT 4SM BR OVC005
     FM230600 19008KT 1SM BR OVC003
     FM231200 26007KT 4SM BR SCT005 OVC050
     FM231600 31008KT P6SM OVC050=

USA.gov is the U.S. government's official web portal to all federal, state and local government web resources and services.